Time;durP1;ratioP1;P1;durP2;ratioP2;P2;SDS_P1;SDS_P2;PMS_P1;PMS_P2;Temp;Humidity;BMP_temperature;BMP_pressure;BME280_temperature;BME280_humidity;BME280_pressure;Samples;Min_cycle;Max_cycle;Signal;HPM_P1;HPM_P2
2022/06/20 00:00:14;;;;;;;9.40;2.22;;;;;;;25.73;29.24;98220.13;4955830;28;20559;-49
2022/06/20 00:02:44;;;;;;;6.65;2.15;;;;;;;25.74;29.03;98229.81;4954417;29;20054;-49
2022/06/20 00:05:15;;;;;;;3.17;1.90;;;;;;;25.74;28.96;98196.75;4954439;29;20134;-49
2022/06/20 00:07:41;;;;;;;5.63;1.92;;;;;;;25.74;28.85;98221.75;4955730;28;20035;-49
2022/06/20 00:10:07;;;;;;;3.00;1.63;;;;;;;25.67;28.98;98227.53;4954375;29;20563;-49
2022/06/20 00:12:33;;;;;;;6.25;1.52;;;;;;;25.51;29.32;98239.81;4954562;29;20564;-49
2022/06/20 00:15:00;;;;;;;8.13;1.90;;;;;;;25.34;29.56;98226.31;4955314;28;20039;-49
2022/06/20 00:17:26;;;;;;;8.80;2.03;;;;;;;25.32;29.55;98210.50;4955036;28;20020;-49
2022/06/20 00:19:53;;;;;;;5.32;1.75;;;;;;;25.28;29.75;98225.66;4954185;29;20393;-49
2022/06/20 00:22:19;;;;;;;7.25;2.42;;;;;;;25.27;29.70;98203.38;4953883;29;20051;-49
2022/06/20 00:24:45;;;;;;;2.60;1.52;;;;;;;25.23;30.01;98212.34;4955373;28;20512;-49
2022/06/20 00:27:10;;;;;;;7.43;1.70;;;;;;;25.19;30.00;98230.16;4955333;29;20042;-49
2022/06/20 00:29:38;;;;;;;4.43;1.98;;;;;;;25.22;29.75;98197.34;4955264;29;20028;-49
2022/06/20 00:32:08;;;;;;;5.25;2.00;;;;;;;25.22;29.80;98232.25;4955243;28;20020;-49
2022/06/20 00:34:34;;;;;;;5.43;1.77;;;;;;;25.18;30.01;98220.53;4955215;28;20024;-49
2022/06/20 00:37:00;;;;;;;5.88;2.15;;;;;;;25.15;30.13;98221.91;4953839;29;20498;-49
2022/06/20 00:39:27;;;;;;;17.38;3.33;;;;;;;25.18;30.49;98244.69;4953789;29;20034;-49
2022/06/20 00:41:52;;;;;;;6.80;1.90;;;;;;;25.18;30.36;98217.84;4955049;28;20031;-49
2022/06/20 00:44:31;;;;;;;5.40;1.80;;;;;;;25.10;30.73;98230.91;4953654;29;20497;-49
2022/06/20 00:47:03;;;;;;;4.28;1.75;;;;;;;25.07;30.53;98204.66;4953730;29;20032;-49
2022/06/20 00:49:45;;;;;;;6.22;2.10;;;;;;;25.02;30.52;98207.47;4954927;28;20402;-49
2022/06/20 00:52:23;;;;;;;4.10;1.40;;;;;;;25.09;30.59;98223.94;4953636;29;20035;-49
2022/06/20 00:55:06;;;;;;;6.70;2.15;;;;;;;25.08;30.87;98226.94;4954859;28;20038;-49
2022/06/20 00:57:42;;;;;;;7.72;1.80;;;;;;;25.17;30.52;98226.97;4953519;29;20034;-49
2022/06/20 01:00:08;;;;;;;14.23;2.45;;;;;;;25.14;30.51;98224.91;4957134;28;20027;-52
2022/06/20 01:02:39;;;;;;;6.38;1.73;;;;;;;25.21;30.08;98231.47;4953754;29;20031;-49
2022/06/20 01:05:14;;;;;;;3.15;1.63;;;;;;;25.23;30.19;98226.59;4954710;28;20442;-49
2022/06/20 01:07:54;;;;;;;5.53;1.83;;;;;;;25.14;30.50;98225.72;4954683;28;20114;-49
2022/06/20 01:10:22;;;;;;;4.53;1.50;;;;;;;25.11;30.59;98221.75;4954578;28;20031;-49
2022/06/20 01:13:01;;;;;;;13.35;4.32;;;;;;;25.15;30.58;98226.50;4954516;28;20027;-49
2022/06/20 01:15:35;;;;;;;10.93;2.25;;;;;;;25.19;30.40;98212.13;4954499;28;20027;-49
2022/06/20 01:18:02;;;;;;;6.72;2.03;;;;;;;25.18;30.34;98209.78;4953154;29;20035;-49
2022/06/20 01:20:32;;;;;;;3.45;1.55;;;;;;;25.15;30.13;98194.28;4953059;29;20114;-49
2022/06/20 01:23:25;;;;;;;16.88;4.05;;;;;;;25.16;30.71;98212.75;4952743;29;20061;-49
2022/06/20 01:26:22;;;;;;;5.22;2.03;;;;;;;25.23;30.10;98213.16;4953047;29;20544;-49
2022/06/20 01:28:51;;;;;;;8.40;2.28;;;;;;;25.18;30.20;98175.66;4954226;28;20038;-48
2022/06/20 01:31:20;;;;;;;5.00;1.88;;;;;;;25.14;30.02;98206.91;4952896;29;20047;-49
2022/06/20 01:33:48;;;;;;;4.72;1.70;;;;;;;25.15;29.93;98176.25;4952996;29;20031;-49
2022/06/20 01:39:00;;;;;;;9.63;1.83;;;;;;;25.10;30.01;98203.25;4954383;29;20046;-49
2022/06/20 01:44:12;;;;;;;6.13;1.30;;;;;;;25.07;30.45;98202.00;4954004;29;20050;-48
2022/06/20 01:46:38;;;;;;;6.03;1.73;;;;;;;25.05;30.74;98200.69;4952776;29;20027;-49
2022/06/20 01:49:12;;;;;;;7.88;2.17;;;;;;;25.07;30.28;98199.31;4953998;28;20035;-49
2022/06/20 01:52:01;;;;;;;13.48;2.80;;;;;;;25.07;30.75;98207.34;4953959;28;20548;-48
2022/06/20 01:54:32;;;;;;;3.20;1.80;;;;;;;25.28;30.16;98210.31;4952707;29;20049;-49
2022/06/20 01:56:58;;;;;;;4.38;1.92;;;;;;;25.30;30.30;98192.00;4954187;28;20445;-48
2022/06/20 01:59:45;;;;;;;12.48;2.30;;;;;;;25.45;30.47;98204.22;4953853;28;20023;-49
2022/06/20 02:02:14;;;;;;;12.52;2.72;;;;;;;25.51;30.06;98212.94;4953731;28;20035;-49
2022/06/20 02:04:46;;;;;;;5.88;2.47;;;;;;;25.32;30.17;98194.38;4953787;29;20055;-49
2022/06/20 02:07:12;;;;;;;5.85;2.00;;;;;;;25.12;30.44;98195.69;4953753;28;20030;-49
2022/06/20 02:09:40;;;;;;;2.65;1.75;;;;;;;24.95;30.72;98176.78;4968537;28;20565;-49
2022/06/20 02:12:07;;;;;;;7.13;2.08;;;;;;;24.92;31.19;98194.31;4953749;28;20031;-50
2022/06/20 02:14:41;;;;;;;4.30;1.60;;;;;;;24.91;31.04;98190.84;4953675;28;20079;-49
2022/06/20 02:17:17;;;;;;;5.75;1.92;;;;;;;24.87;31.18;98173.75;4953721;28;20117;-49
2022/06/20 02:19:52;;;;;;;7.65;2.20;;;;;;;24.76;31.37;98177.78;4952693;29;20040;-49
2022/06/20 02:22:21;;;;;;;6.10;2.13;;;;;;;24.72;31.42;98168.75;4952082;29;20046;-49
2022/06/20 02:24:55;;;;;;;4.97;1.38;;;;;;;24.69;31.58;98172.84;4953644;28;20023;-49
2022/06/20 02:27:32;;;;;;;6.57;2.67;;;;;;;24.65;32.08;98174.56;4953919;28;20401;-49
2022/06/20 02:30:01;;;;;;;3.17;1.42;;;;;;;24.76;31.75;98180.47;4953643;28;20505;-49
2022/06/20 02:32:33;;;;;;;6.82;1.80;;;;;;;24.70;31.80;98161.00;4953465;28;20031;-49
2022/06/20 02:34:59;;;;;;;9.55;2.97;;;;;;;24.70;31.78;98176.31;4953608;28;20036;-49
2022/06/20 02:37:26;;;;;;;4.45;1.65;;;;;;;24.76;31.77;98175.09;4952127;29;20046;-49
2022/06/20 02:39:58;;;;;;;6.53;1.70;;;;;;;24.74;31.71;98157.72;4954434;28;20023;-49
2022/06/20 02:42:50;;;;;;;4.55;1.70;;;;;;;24.68;31.70;98162.41;4957187;28;20043;-49
2022/06/20 02:45:18;;;;;;;2.90;1.85;;;;;;;24.67;31.65;98167.00;4956778;29;20524;-49
2022/06/20 02:47:50;;;;;;;9.18;2.13;;;;;;;24.69;31.87;98172.06;4955854;29;20398;-49
2022/06/20 02:50:21;;;;;;;7.68;1.70;;;;;;;24.68;31.87;98168.56;4957101;28;20393;-49
2022/06/20 02:52:54;;;;;;;8.38;2.53;;;;;;;24.64;32.03;98174.88;4957113;28;20042;-49
2022/06/20 02:55:23;;;;;;;3.45;1.80;;;;;;;24.62;32.33;98174.38;4957025;28;20419;-49
2022/06/20 02:57:54;;;;;;;5.68;1.80;;;;;;;24.61;32.16;98187.00;4955636;29;20038;-49
2022/06/20 03:00:28;;;;;;;8.38;2.38;;;;;;;24.59;32.13;98180.34;4956893;28;20119;-49
2022/06/20 03:03:04;;;;;;;11.33;2.07;;;;;;;24.56;32.36;98195.16;4956883;28;20382;-49
2022/06/20 03:05:30;;;;;;;5.55;1.73;;;;;;;24.58;32.34;98203.69;4955543;29;20046;-49
2022/06/20 03:07:56;;;;;;;6.32;1.80;;;;;;;24.62;32.41;98206.56;4956810;28;20019;-49
2022/06/20 03:10:54;;;;;;;3.00;1.65;;;;;;;24.68;32.33;98202.66;4955688;29;20118;-49
2022/06/20 03:13:23;;;;;;;9.07;1.95;;;;;;;24.76;32.08;98212.69;4953764;29;20069;-49
2022/06/20 03:15:52;;;;;;;19.55;2.55;;;;;;;24.72;32.34;98217.84;4956591;28;20111;-49
2022/06/20 03:18:22;;;;;;;7.32;1.80;;;;;;;24.76;31.94;98220.72;4956601;28;20028;-49
2022/06/20 03:20:49;;;;;;;8.18;1.83;;;;;;;24.72;32.03;98233.94;4955386;29;20027;-49
2022/06/20 03:23:24;;;;;;;13.00;3.15;;;;;;;24.86;32.43;98230.44;4939185;29;20039;-48
2022/06/20 03:25:50;;;;;;;;;;;;;;;25.02;31.66;98228.16;4939636;29;20031;-49
2022/06/20 03:28:19;;;;;;;6.93;1.95;;;;;;;25.02;31.99;98239.69;4939184;29;19917;-49
2022/06/20 03:30:46;;;;;;;5.53;2.10;;;;;;;25.04;31.76;98242.06;4956379;29;20106;-49
2022/06/20 03:33:16;;;;;;;3.00;1.92;;;;;;;25.12;32.16;98247.50;4939070;29;20031;-49
2022/06/20 03:35:49;;;;;;;4.70;1.58;;;;;;;25.26;31.65;98249.34;4956492;29;20038;-49
2022/06/20 03:38:16;;;;;;;12.90;3.17;;;;;;;25.49;32.04;98256.28;4939277;29;20539;-48
2022/06/20 03:40:42;;;;;;;6.53;2.08;;;;;;;25.85;31.10;98252.59;4938996;29;20027;-49
2022/06/20 03:43:12;;;;;;;3.83;1.80;;;;;;;26.04;30.42;98244.31;4938825;29;20031;-49
2022/06/20 03:45:44;;;;;;;6.88;2.05;;;;;;;26.02;30.60;98251.91;4938815;29;20027;-49
2022/06/20 03:48:25;;;;;;;13.85;3.83;;;;;;;26.10;31.04;98253.81;4956137;29;20355;-49
2022/06/20 03:51:01;;;;;;;9.95;2.70;;;;;;;26.26;30.58;98251.47;4956020;28;20452;-48
2022/06/20 03:53:47;;;;;;;6.50;1.98;;;;;;;26.31;30.41;98253.22;4938911;29;20477;-49
2022/06/20 03:56:20;;;;;;;6.40;1.92;;;;;;;26.28;29.86;98272.69;4938708;29;20035;-49
2022/06/20 03:59:00;;;;;;;14.68;2.72;;;;;;;26.22;30.56;98255.91;4955953;29;20370;-49
2022/06/20 04:02:05;;;;;;;8.90;2.97;;;;;;;26.52;30.46;98269.53;4955799;29;20035;-49
2022/06/20 04:04:46;;;;;;;7.55;1.92;;;;;;;26.72;29.63;98273.53;4955840;29;20050;-49
2022/06/20 04:07:37;;;;;;;3.60;2.10;;;;;;;26.68;29.71;98272.56;4938484;29;20457;-49
2022/06/20 04:13:21;;;;;;;3.15;1.63;;;;;;;26.15;29.60;98279.75;4955975;29;20054;-49
2022/06/20 04:16:02;;;;;;;5.68;1.80;;;;;;;25.99;30.36;98279.41;4955624;29;20031;-49
2022/06/20 04:18:37;;;;;;;5.55;1.73;;;;;;;25.96;29.92;98296.16;4938297;29;20094;-49
2022/06/20 04:21:11;;;;;;;3.42;1.73;;;;;;;25.87;30.31;98289.94;4939606;28;20094;-49
2022/06/20 04:24:05;;;;;;;8.10;2.33;;;;;;;25.93;30.61;98293.31;4956431;28;20031;-49
2022/06/20 04:27:05;;;;;;;9.52;2.20;;;;;;;26.25;29.91;98292.91;4955357;29;20139;-49
2022/06/20 04:29:37;;;;;;;15.73;3.90;;;;;;;26.65;29.96;98289.38;4953991;29;20027;-49
2022/06/20 04:32:29;;;;;;;6.35;2.70;;;;;;;27.07;28.90;98292.38;4955368;28;20405;-49
2022/06/20 04:34:58;;;;;;;6.80;1.73;;;;;;;27.17;28.95;98293.94;4954003;29;20030;-49
2022/06/20 04:37:40;;;;;;;3.85;1.95;;;;;;;27.23;28.44;98295.34;4955125;28;20106;-49
2022/06/20 04:40:22;;;;;;;5.18;1.73;;;;;;;27.29;28.71;98291.41;4954049;29;20497;-49
2022/06/20 04:42:56;;;;;;;7.43;1.70;;;;;;;27.43;28.55;98293.91;4955041;28;20031;-49
2022/06/20 04:45:28;;;;;;;13.25;2.05;;;;;;;27.59;28.79;98289.59;4955069;28;20030;-49
2022/06/20 04:48:12;;;;;;;4.53;1.95;;;;;;;27.99;28.11;98283.91;4955054;28;20065;-49
2022/06/20 04:50:44;;;;;;;5.07;2.15;;;;;;;28.51;27.71;98293.59;4953671;29;20039;-49
2022/06/20 04:53:14;;;;;;;5.15;1.75;;;;;;;29.05;26.48;98290.16;4954893;28;20041;-49
2022/06/20 04:55:45;;;;;;;5.32;1.90;;;;;;;29.67;25.52;98294.59;4953538;29;20037;-49
2022/06/20 04:58:19;;;;;;;7.90;2.65;;;;;;;30.24;25.24;98289.44;4954733;28;20035;-49
2022/06/20 05:00:47;;;;;;;10.23;2.25;;;;;;;30.27;24.78;98294.19;4953585;29;20130;-49
2022/06/20 05:03:23;;;;;;;5.78;1.80;;;;;;;30.48;24.62;98293.28;4954139;28;20038;-49
2022/06/20 05:05:52;;;;;;;8.98;2.75;;;;;;;31.00;24.54;98295.16;4953352;29;20031;-49
2022/06/20 05:08:26;;;;;;;2.80;1.90;;;;;;;31.75;23.57;98302.53;4953571;29;20031;-49
2022/06/20 05:11:19;;;;;;;10.05;2.38;;;;;;;32.23;22.94;98297.88;4953347;29;20034;-49
2022/06/20 05:13:51;;;;;;;19.50;3.70;;;;;;;32.88;22.44;98293.03;4954582;28;20039;-49
2022/06/20 05:16:29;;;;;;;20.42;5.07;;;;;;;33.50;21.91;98299.25;4954488;28;20102;-49
2022/06/20 05:19:00;;;;;;;9.50;2.03;;;;;;;33.96;21.17;98301.97;4954473;28;20113;-49
2022/06/20 05:21:47;;;;;;;20.40;18.27;;;;;;;34.19;20.90;98301.19;4954123;28;20066;-51
2022/06/20 05:24:30;;;;;;;10.00;3.28;;;;;;;34.39;20.63;98293.66;4952989;29;20031;-49
2022/06/20 05:26:57;;;;;;;11.13;1.92;;;;;;;34.70;20.43;98294.50;4953152;29;20027;-49
2022/06/20 05:29:26;;;;;;;3.88;1.80;;;;;;;34.57;19.82;98288.44;4954286;28;20433;-49
2022/06/20 05:31:55;;;;;;;8.55;3.25;;;;;;;34.14;20.44;98309.66;4954202;28;20114;-49
2022/06/20 05:34:46;;;;;;;9.07;2.13;;;;;;;34.06;20.39;98314.19;4954134;28;20493;-49
2022/06/20 05:37:39;;;;;;;5.38;2.67;;;;;;;34.51;20.40;98309.81;4954171;28;20031;-49
2022/06/20 05:40:08;;;;;;;9.20;2.97;;;;;;;34.80;20.25;98319.13;4953031;29;20028;-49
2022/06/20 05:42:34;;;;;;;11.38;3.05;;;;;;;35.46;19.91;98313.25;4954038;28;20027;-48
2022/06/20 05:45:01;;;;;;;12.23;4.18;;;;;;;36.07;19.37;98326.66;4952758;29;20031;-47
2022/06/20 05:47:35;;;;;;;12.65;3.28;;;;;;;36.70;18.82;98321.97;4952667;29;20023;-47
2022/06/20 05:50:10;;;;;;;15.17;3.13;;;;;;;37.03;17.86;98323.66;4953069;29;20046;-48
2022/06/20 05:52:40;;;;;;;11.95;2.28;;;;;;;37.14;17.93;98334.66;4953988;28;20030;-47
2022/06/20 05:55:12;;;;;;;7.97;2.13;;;;;;;36.98;18.08;98327.53;4953802;28;20082;-48
2022/06/20 05:57:41;;;;;;;9.75;2.30;;;;;;;36.99;18.41;98333.81;4954013;28;20400;-48
2022/06/20 06:00:16;;;;;;;9.57;2.53;;;;;;;37.37;17.47;98337.84;4953885;28;20050;-47
2022/06/20 06:02:51;;;;;;;16.33;3.53;;;;;;;37.33;17.88;98347.22;4953703;28;20035;-47
2022/06/20 06:05:26;;;;;;;4.53;1.58;;;;;;;37.54;17.16;98352.72;4953806;28;20036;-48
2022/06/20 06:07:54;;;;;;;10.30;2.47;;;;;;;37.84;17.45;98354.34;4953840;28;20028;-48
2022/06/20 06:11:02;;;;;;;8.10;2.10;;;;;;;37.79;17.26;98357.44;4953709;28;20106;-45
2022/06/20 06:13:42;;;;;;;9.10;2.10;;;;;;;37.69;17.05;98363.72;4952519;28;20035;-45
2022/06/20 06:19:12;;;;;;;7.93;2.10;;;;;;;37.20;17.66;98360.47;4958253;29;20506;-44
2022/06/20 06:21:39;;;;;;;12.13;3.53;;;;;;;37.14;17.96;98365.53;4956144;29;20099;-44
2022/06/20 06:24:07;;;;;;;9.65;2.60;;;;;;;37.26;17.38;98378.09;4956210;29;20046;-44
2022/06/20 06:26:35;;;;;;;9.68;2.40;;;;;;;37.74;17.74;98368.81;4957533;28;20023;-45
2022/06/20 06:29:03;;;;;;;7.03;1.95;;;;;;;38.30;17.10;98369.22;4957436;28;20515;-45
2022/06/20 06:31:36;;;;;;;8.60;2.05;;;;;;;38.52;16.79;98370.75;4957496;28;20393;-45
2022/06/20 06:34:21;;;;;;;3.72;1.70;;;;;;;38.79;16.08;98372.25;4956201;29;20441;-45
2022/06/20 06:37:17;;;;;;;14.68;3.08;;;;;;;38.97;16.36;98364.75;4956158;29;20043;-45
2022/06/20 06:40:16;;;;;;;13.18;2.65;;;;;;;40.00;15.61;98365.28;4957396;28;20031;-46
2022/06/20 06:42:42;;;;;;;6.43;2.03;;;;;;;40.66;14.89;98366.22;4953018;29;20031;-48
2022/06/20 06:45:15;;;;;;;13.07;2.00;;;;;;;40.52;15.28;98367.16;4955855;29;20039;-47
2022/06/20 06:47:47;;;;;;;12.82;2.30;;;;;;;40.97;15.00;98374.53;4957251;28;20501;-47
2022/06/20 06:50:29;;;;;;;11.80;2.58;;;;;;;41.88;14.42;98367.38;4957160;28;20040;-48
2022/06/20 06:53:03;;;;;;;15.93;2.50;;;;;;;42.66;13.71;98365.19;4955805;29;20057;-51
2022/06/20 06:55:42;;;;;;;16.25;3.65;;;;;;;43.02;13.04;98371.97;4971869;28;20039;-51
2022/06/20 06:58:37;;;;;;;8.60;2.03;;;;;;;43.89;12.81;98371.59;4957060;28;20401;-49
2022/06/20 07:01:12;;;;;;;19.02;2.85;;;;;;;44.51;12.17;98366.03;4957003;28;20400;-51
2022/06/20 07:04:04;;;;;;;21.50;3.47;;;;;;;44.88;12.30;98376.91;4956886;28;20082;-50
2022/06/20 07:06:40;;;;;;;7.10;1.70;;;;;;;45.09;12.06;98375.50;4956860;28;20113;-50
2022/06/20 07:09:13;;;;;;;8.52;1.95;;;;;;;45.41;11.33;98367.00;4956915;28;20401;-50
2022/06/20 07:11:49;;;;;;;4.90;1.57;;;;;;;45.87;10.96;98377.81;4956776;28;20027;-50
2022/06/20 07:14:22;;;;;;;8.13;2.20;;;;;;;45.73;11.38;98381.06;4956741;28;20042;-50
2022/06/20 07:17:19;;;;;;;7.03;2.00;;;;;;;45.38;11.30;98375.41;4955324;29;20062;-50
2022/06/20 07:19:49;;;;;;;19.45;2.88;;;;;;;44.38;11.91;98374.28;4947777;29;20039;-49
2022/06/20 07:22:18;;;;;;;4.55;1.48;;;;;;;43.14;12.65;98381.59;4956285;28;20044;-50
2022/06/20 07:24:46;;;;;;;4.97;1.58;;;;;;;41.70;13.38;98387.72;4956098;28;20070;-49
2022/06/20 07:27:12;;;;;;;3.92;1.90;;;;;;;40.67;14.20;98387.84;4956450;28;20050;-49
2022/06/20 07:30:09;;;;;;;2.83;1.40;;;;;;;40.24;14.64;98382.75;4956499;28;20450;-49
2022/06/20 07:32:44;;;;;;;5.05;1.30;;;;;;;40.24;14.73;98392.97;4951446;29;20055;-50
2022/06/20 07:35:18;;;;;;;3.22;1.75;;;;;;;39.98;14.62;98389.66;4956321;28;20058;-48
2022/06/20 07:38:02;;;;;;;7.00;1.98;;;;;;;39.66;15.13;98390.69;4956398;28;20463;-47
2022/06/20 07:40:32;;;;;;;5.30;1.80;;;;;;;39.13;14.88;98392.50;4956559;28;20031;-47
2022/06/20 07:43:24;;;;;;;15.95;2.60;;;;;;;39.20;15.79;98388.97;4956148;28;20489;-47
2022/06/20 07:45:54;;;;;;;11.35;1.95;;;;;;;39.36;14.89;98388.44;4946440;29;20058;-47
2022/06/20 07:48:33;;;;;;;10.38;1.90;;;;;;;39.96;14.79;98385.75;4956013;29;20074;-47
2022/06/20 07:51:06;;;;;;;21.42;2.58;;;;;;;41.32;14.29;98384.31;4954635;29;20098;-50
2022/06/20 07:53:38;;;;;;;13.48;2.67;;;;;;;42.19;13.43;98381.81;4956120;28;20035;-48
2022/06/20 07:56:18;;;;;;;11.20;1.90;;;;;;;42.62;12.83;98380.25;4954660;29;20059;-49
2022/06/20 07:58:52;;;;;;;13.88;2.30;;;;;;;42.97;12.31;98370.50;4955897;28;20071;-51
2022/06/20 08:01:28;;;;;;;9.50;1.98;;;;;;;43.70;12.16;98367.72;4955906;28;20029;-52
2022/06/20 08:04:01;;;;;;;110.10;7.85;;;;;;;44.38;12.13;98379.81;4954594;29;20035;-52
2022/06/20 08:06:45;;;;;;;3.75;1.30;;;;;;;44.80;11.29;98368.03;4955825;28;20031;-52
2022/06/20 08:09:27;;;;;;;10.00;2.15;;;;;;;44.07;11.58;98371.94;4954317;29;20077;-52
2022/06/20 08:12:22;;;;;;;3.40;1.35;;;;;;;43.56;11.24;98373.56;4955648;29;20569;-52
2022/06/20 08:14:59;;;;;;;4.63;1.35;;;;;;;42.88;11.99;98373.84;4953698;29;20041;-51
2022/06/20 08:17:29;;;;;;;4.20;1.33;;;;;;;42.77;12.33;98372.47;4955689;28;20027;-52
2022/06/20 08:19:56;;;;;;;8.88;1.50;;;;;;;42.69;12.40;98386.41;4955770;28;20086;-49
2022/06/20 08:22:43;;;;;;;6.72;1.60;;;;;;;42.69;12.29;98382.88;4955200;28;20051;-50
2022/06/20 08:25:29;;;;;;;6.05;1.50;;;;;;;42.97;12.00;98381.53;4954189;29;20409;-49
2022/06/20 08:28:04;;;;;;;5.32;1.70;;;;;;;43.72;11.67;98367.28;4954386;29;20110;-52
2022/06/20 08:30:42;;;;;;;7.80;1.60;;;;;;;44.31;11.87;98368.94;4954085;29;20031;-52
2022/06/20 08:33:13;;;;;;;5.60;1.52;;;;;;;44.65;11.43;98370.41;4955382;28;20119;-52
2022/06/20 08:35:51;;;;;;;7.25;2.25;;;;;;;44.13;10.79;98366.66;4955317;28;20037;-51
2022/06/20 08:38:47;;;;;;;5.82;1.52;;;;;;;43.14;11.61;98356.72;4954575;28;20039;-50
2022/06/20 08:41:50;;;;;;;2.47;1.40;;;;;;;42.84;12.20;98361.28;4955209;28;20028;-50
2022/06/20 08:44:43;;;;;;;6.22;1.70;;;;;;;42.51;12.30;98363.91;4955058;29;20019;-50
2022/06/20 08:47:21;;;;;;;7.50;1.63;;;;;;;42.45;12.56;98360.84;4953831;29;20027;-50
2022/06/20 08:50:27;;;;;;;6.00;1.98;;;;;;;42.94;12.47;98351.25;4955058;29;20055;-50
2022/06/20 08:53:27;;;;;;;5.88;1.58;;;;;;;42.92;12.00;98348.13;4945161;29;20047;-52
2022/06/20 08:56:29;;;;;;;11.57;3.15;;;;;;;43.42;12.14;98344.28;4954856;29;20398;-52
2022/06/20 08:59:08;;;;;;;7.50;1.90;;;;;;;43.93;11.98;98349.38;4953581;29;20031;-52
2022/06/20 09:01:49;;;;;;;9.48;2.03;;;;;;;43.71;11.74;98347.16;4954821;28;20428;-52
2022/06/20 09:04:46;;;;;;;8.13;2.13;;;;;;;43.13;12.24;98344.91;4954705;29;20027;-52
2022/06/20 09:07:47;;;;;;;5.75;1.45;;;;;;;43.22;11.65;98344.31;4954646;29;20039;-52
2022/06/20 09:10:24;;;;;;;6.63;1.90;;;;;;;42.68;12.45;98348.19;4954624;28;20031;-51
2022/06/20 09:13:16;;;;;;;4.10;1.40;;;;;;;42.67;12.56;98341.13;4954551;29;20106;-52
2022/06/20 09:16:01;;;;;;;5.13;1.95;;;;;;;42.33;12.11;98335.88;4954543;28;20019;-51
2022/06/20 09:18:35;;;;;;;6.22;1.90;;;;;;;42.49;12.76;98336.72;4953295;29;20035;-52
2022/06/20 09:21:12;;;;;;;10.45;2.50;;;;;;;42.87;12.84;98332.84;4953162;29;20027;-52
2022/06/20 09:23:56;;;;;;;7.18;1.88;;;;;;;43.14;12.41;98338.16;4952908;29;20069;-52
2022/06/20 09:26:34;;;;;;;3.55;1.70;;;;;;;43.19;12.29;98342.41;4954362;28;20078;-52
2022/06/20 09:29:17;;;;;;;4.28;1.80;;;;;;;43.44;11.92;98339.84;4954286;28;20043;-52
2022/06/20 09:32:02;;;;;;;;;;;;;;;42.83;11.88;98345.94;4954719;28;20116;-51
2022/06/20 09:34:36;;;;;;;;;;;;;;;41.68;12.71;98335.00;4954630;29;19925;-49
2022/06/20 09:37:32;;;;;;;9.93;2.40;;;;;;;41.27;13.25;98337.97;4954074;29;20303;-49
2022/06/20 09:40:19;;;;;;;5.85;1.58;;;;;;;41.37;12.90;98339.78;4954200;29;20107;-50
2022/06/20 09:42:45;;;;;;;9.80;2.13;;;;;;;41.48;13.06;98334.13;4954021;29;20027;-50
2022/06/20 09:45:40;;;;;;;7.80;1.77;;;;;;;41.69;13.17;98327.50;4954055;28;20493;-49
2022/06/20 09:48:19;;;;;;;4.57;1.92;;;;;;;42.42;12.42;98316.75;4953985;28;20024;-49
2022/06/20 09:51:09;;;;;;;7.28;1.83;;;;;;;42.31;12.50;98336.28;4954060;28;20030;-52
2022/06/20 09:53:48;;;;;;;9.18;1.95;;;;;;;41.68;12.58;98323.97;4952758;29;20035;-50
2022/06/20 09:56:24;;;;;;;4.63;1.52;;;;;;;41.30;13.16;98331.63;4953953;28;20051;-51
2022/06/20 09:59:09;;;;;;;5.80;2.28;;;;;;;41.74;13.11;98327.03;4952654;29;20054;-49
2022/06/20 10:01:44;;;;;;;6.22;1.50;;;;;;;41.57;13.10;98309.56;4953866;29;20035;-50
2022/06/20 10:04:41;;;;;;;6.65;2.35;;;;;;;41.21;13.58;98309.31;4953763;28;20490;-50
2022/06/20 10:07:21;;;;;;;4.75;1.85;;;;;;;41.00;13.55;98315.91;4953763;29;20078;-50
2022/06/20 10:10:07;;;;;;;7.03;2.38;;;;;;;41.42;13.61;98317.28;4954148;28;20453;-52
2022/06/20 10:12:57;;;;;;;3.22;1.58;;;;;;;42.24;12.84;98297.78;4953804;28;20027;-52
2022/06/20 10:15:22;;;;;;;3.03;1.67;;;;;;;42.07;12.49;98316.25;4952447;29;20042;-52
2022/06/20 10:18:11;;;;;;;5.35;1.48;;;;;;;42.11;12.89;98312.22;4953772;28;20028;-52
2022/06/20 10:20:55;;;;;;;5.85;1.80;;;;;;;42.14;12.99;98305.09;4944619;29;20039;-52
2022/06/20 10:23:31;;;;;;;;;;;;;;;41.99;12.97;98296.25;4953835;28;20118;-49
2022/06/20 10:26:21;;;;;;;3.58;1.98;;;;;;;41.72;13.23;98296.34;4953657;28;19921;-50
2022/06/20 10:28:49;;;;;;;11.15;2.55;;;;;;;41.20;13.96;98296.78;4953658;28;20087;-49
2022/06/20 10:31:32;;;;;;;6.50;2.50;;;;;;;41.55;13.75;98286.38;4952282;29;20043;-50
2022/06/20 10:34:07;;;;;;;8.70;2.08;;;;;;;42.28;13.55;98287.47;4953530;29;20027;-52
2022/06/20 10:36:45;;;;;;;5.47;1.70;;;;;;;43.17;12.90;98284.06;4953577;28;20035;-51
2022/06/20 10:39:46;;;;;;;5.13;1.70;;;;;;;42.66;12.19;98290.69;4953531;28;20166;-50
2022/06/20 10:42:32;;;;;;;4.07;1.60;;;;;;;42.28;12.97;98277.22;4953470;28;20035;-50
2022/06/20 10:45:16;;;;;;;6.75;2.08;;;;;;;42.37;13.08;98282.16;4953471;28;20038;-49
2022/06/20 10:48:00;;;;;;;4.45;2.08;;;;;;;42.32;12.73;98282.69;4953471;29;20035;-49
2022/06/20 10:50:40;;;;;;;5.07;1.40;;;;;;;42.58;13.15;98278.25;4953438;29;20497;-49
2022/06/20 10:53:24;;;;;;;8.70;1.70;;;;;;;43.11;12.79;98280.28;4953424;28;20023;-52
2022/06/20 10:56:05;;;;;;;8.30;1.55;;;;;;;43.53;12.19;98269.38;4952113;29;20043;-52
2022/06/20 10:58:55;;;;;;;12.23;2.50;;;;;;;43.97;12.26;98273.41;4953342;29;20079;-50
2022/06/20 11:01:34;;;;;;;8.80;2.25;;;;;;;44.22;11.80;98266.44;4956228;28;20049;-52
2022/06/20 11:04:18;;;;;;;4.40;1.77;;;;;;;44.79;11.76;98269.53;4956910;28;20027;-52
2022/06/20 11:06:43;;;;;;;;;;;;;;;44.20;12.23;98275.16;4957332;28;20035;-52
2022/06/20 11:09:14;;;;;;;4.35;1.65;;;;;;;43.93;11.72;98267.22;4955496;29;19914;-53
2022/06/20 11:11:42;;;;;;;9.20;2.03;;;;;;;43.99;11.67;98261.91;4955553;29;20109;-52
2022/06/20 11:14:30;;;;;;;26.55;10.82;;;;;;;44.26;11.93;98261.59;4956779;29;20048;-52
2022/06/20 11:17:11;;;;;;;12.48;2.60;;;;;;;44.46;11.62;98261.41;4956747;28;20106;-52
2022/06/20 11:19:58;;;;;;;16.52;2.70;;;;;;;43.64;11.79;98256.09;4956703;28;20078;-52
2022/06/20 11:22:47;;;;;;;5.70;1.98;;;;;;;42.73;12.40;98266.88;4956626;28;20066;-53
2022/06/20 11:25:46;;;;;;;6.60;1.63;;;;;;;42.02;13.19;98253.31;4956612;28;20042;-51
2022/06/20 11:28:42;;;;;;;8.40;2.45;;;;;;;42.88;12.72;98251.56;4955283;29;20031;-51
2022/06/20 11:31:30;;;;;;;6.32;1.70;;;;;;;43.80;12.34;98249.78;4955169;29;20027;-52
2022/06/20 11:34:29;;;;;;;10.20;2.00;;;;;;;43.69;12.19;98247.31;4956399;29;20109;-52
2022/06/20 11:36:54;;;;;;;4.80;1.50;;;;;;;42.87;12.17;98242.53;4955056;29;20031;-52
2022/06/20 11:39:39;;;;;;;7.68;2.03;;;;;;;41.57;13.00;98243.41;4954984;29;20027;-52
2022/06/20 11:42:33;;;;;;;2.72;1.52;;;;;;;41.14;13.75;98244.13;4954937;29;20114;-53
2022/06/20 11:45:31;;;;;;;11.55;3.08;;;;;;;41.10;13.94;98243.38;4971061;28;20497;-52
2022/06/20 11:48:22;;;;;;;10.40;2.40;;;;;;;40.97;13.22;98240.44;4956213;28;20401;-52
2022/06/20 11:51:04;;;;;;;12.63;2.50;;;;;;;40.88;13.63;98231.91;4954764;29;20131;-50
2022/06/20 11:53:49;;;;;;;5.15;1.90;;;;;;;41.16;13.24;98233.47;4956113;28;20448;-50
2022/06/20 11:57:02;;;;;;;24.27;3.20;;;;;;;41.62;13.35;98220.16;4954752;29;20063;-50
2022/06/20 11:59:41;;;;;;;5.63;1.70;;;;;;;41.36;12.90;98225.28;4954662;29;20034;-51
2022/06/20 12:02:29;;;;;;;4.20;1.55;;;;;;;41.05;13.78;98224.56;4955932;28;20035;-50
2022/06/20 12:05:21;;;;;;;11.90;1.80;;;;;;;41.07;13.62;98213.94;4955898;29;20023;-51
2022/06/20 12:08:12;;;;;;;7.72;1.67;;;;;;;41.08;12.90;98224.53;4955632;29;20086;-50
2022/06/20 12:10:48;;;;;;;6.05;1.60;;;;;;;40.80;13.27;98217.47;4954588;28;20020;-50
2022/06/20 12:13:19;;;;;;;5.90;1.60;;;;;;;41.11;13.62;98223.72;4954946;28;20035;-50
2022/06/20 12:16:15;;;;;;;3.65;1.55;;;;;;;41.34;13.38;98224.16;4954385;29;20038;-50
2022/06/20 12:24:28;;;;;;;4.97;1.65;;;;;;;40.57;13.66;98222.88;4955322;29;20058;-49
2022/06/20 12:26:54;;;;;;;7.22;1.65;;;;;;;40.15;13.94;98206.50;4954081;29;20405;-48
2022/06/20 12:29:25;;;;;;;17.52;2.92;;;;;;;40.02;15.83;98213.72;4955393;28;20039;-50
2022/06/20 12:31:59;;;;;;;61.92;4.97;;;;;;;40.19;14.68;98209.97;4955565;28;20039;-49
2022/06/20 12:34:57;;;;;;;8.02;2.42;;;;;;;40.60;13.95;98203.59;4955348;28;20106;-50
2022/06/20 12:37:45;;;;;;;9.52;2.30;;;;;;;40.15;14.08;98206.50;4953971;29;20050;-50